x

8670870 - Fort Pulaski, Ga (fpkg1) Weather Station

4:54pm - Tue 17th Jan 2017 All times are EST. -5 hours from GMT.

  • Wind
    2mph
  • Sea Temp 56°f
  • Air Temp 66°f
  • Sea Pressure 1022.6mb
  • 8670870 - Fort Pulaski, Ga
  • 8670870 - Fort Pulaski, Ga

More Historic Weather Station data

Upgrade to MSW Pro to gain access to the past 30 days of data for over 8000 Wavebouys and Weather Stations around the globe.

Join Pro

Comparision Forecast

View Surf forecast
   
Tue 01/17 4:54pm 2
mph
1022.6mb 56f 66f
4:48pm 3 6 mph 1022.5mb 56f 66f
4:42pm 3 5 mph 1022.4mb 56f 66f
4:36pm 3 6 mph 1022.3mb 56f 67f
4:30pm 5 6 mph 1022.4mb 56f 67f
4:24pm 6 7 mph 1022.3mb 56f 67f
4:18pm 6 8 mph 1022.3mb 56f 68f
4:12pm 5 8 mph 1022.4mb 56f 68f
4:06pm 5 7 mph 1022.4mb 56f 68f
4:00pm 5 7 mph 1022.4mb 56f 69f
3:54pm 5 7 mph 1022.4mb 56f 69f
3:48pm 5 6 mph 1022.4mb 56f 69f
3:42pm 5 7 mph 1022.4mb 56f 69f
3:36pm 5 7 mph 1022.4mb 56f 69f
3:30pm 5 7 mph 1022.4mb 56f 69f
3:24pm 6 7 mph 1022.3mb 56f 69f
3:18pm 5 7 mph 1022.3mb 56f -
3:12pm 5 7 mph 1022.3mb 56f 69f
3:06pm 5 6 mph 1022.4mb 56f 69f
3:00pm 3 5 mph 1022.4mb 56f 68f
2:54pm 5 7 mph 1022.4mb 56f 68f
2:48pm 6 7 mph 1022.5mb - -
2:42pm 6 7 mph 1022.6mb 56f 69f
2:36pm 6 9 mph 1022.5mb 56f 69f
2:30pm 6 9 mph 1022.6mb 56f 69f
2:24pm 6 8 mph 1022.6mb 56f 70f
2:18pm 5 9 mph 1022.6mb 56f 68f
2:12pm 6 8 mph 1022.7mb 56f 67f
2:06pm 6 8 mph 1022.9mb 56f 67f
2:00pm 6 8 mph 1022.9mb 56f 67f
1:54pm 5 7 mph 1023mb 56f 67f
1:48pm 6 8 mph 1023mb 56f 66f
1:42pm 6 8 mph 1023.1mb 56f 66f
1:36pm 6 8 mph 1023.2mb 56f 65f
1:30pm 6 7 mph 1023.3mb 56f 65f
1:24pm 3 6 mph 1023.5mb 56f 65f
1:18pm 5 7 mph 1023.5mb 56f 65f
1:12pm 3 5 mph 1023.7mb 56f 64f
1:06pm 3 5 mph 1023.8mb 56f 64f
1:00pm 5 6 mph 1024mb 56f 64f
12:54pm 5 6 mph 1024.2mb 56f 63f
12:48pm 3 5 mph 1024.3mb 56f 64f
12:42pm 2 5 mph 1024.4mb 56f 63f
12:36pm  -  2 mph 1024.6mb 56f 62f
12:30pm  -  mph 1024.7mb 56f 63f
12:24pm  -  2 mph 1024.8mb 56f 61f
12:18pm  -  mph 1024.8mb 56f -
12:12pm  -  1 mph 1024.9mb 56f 60f
12:06pm 2 3 mph 1025mb 56f 59f
12:00pm 1
mph
1025.1mb 56f 60f
11:54am  -  1 mph 1025.3mb 56f 59f
11:48am 1
mph
1025.3mb 56f 59f
11:42am 2 3 mph 1025.3mb 56f 59f
11:36am 2
mph
1025.4mb 56f 59f
11:30am 2 3 mph 1025.5mb 56f 59f
11:24am 3
mph
1025.6mb 56f 58f
11:18am 3
mph
1025.7mb 56f -
11:12am 5
mph
1025.8mb 56f 58f
11:06am 6
mph
1025.9mb 56f 58f
11:00am 6
mph
1025.9mb 56f 57f
10:54am 6
mph
1026mb 56f 57f
10:48am 3 5 mph 1025.9mb - -
10:42am 2
mph
1025.9mb 56f 57f
10:36am 2
mph
1025.9mb 56f 57f
10:30am 2
mph
1025.9mb 56f 57f
10:24am 2 3 mph 1025.9mb 56f 56f
10:18am 1 2 mph 1025.9mb 56f 56f
10:12am  -  1 mph 1025.9mb 56f 56f
10:06am 2
mph
1025.8mb 56f 56f
10:00am  -  1 mph 1025.7mb 56f 56f
9:54am  -  mph 1025.6mb 56f 57f
9:48am  -  mph 1025.5mb 56f 57f
9:42am  -  mph 1025.5mb 56f 58f
9:36am  -  mph 1025.4mb 56f 57f
9:30am  -  mph 1025.4mb 56f 57f
9:24am  -  mph 1025.4mb 56f 57f
9:18am  -  mph 1025.3mb - -
9:12am  -  1 mph 1025.3mb 56f 56f
9:06am  -  mph 1025.3mb 56f 56f
9:00am  -  1 mph 1025.2mb 56f 56f
8:54am 2
mph
1025.2mb 56f 55f
8:48am 1 2 mph 1025.1mb 55f -
8:42am  -  mph 1025.1mb 55f 55f
8:36am  -  1 mph 1025.1mb 55f 55f
8:30am 2
mph
1025.2mb 55f 55f
8:24am 3 5 mph 1025.2mb 55f 55f
8:18am 6
mph
1025.2mb - -
8:12am 6
mph
1025.2mb 55f 55f
8:06am 3 5 mph 1025.1mb 55f 55f
8:00am  -  1 mph 1025.1mb 55f 55f
7:54am 1
mph
1025mb 55f 55f
7:48am  -  mph 1025mb 55f -
7:42am  -  mph 1025mb 55f 55f
7:36am  -  1 mph 1025mb 55f 56f
7:30am 1
mph
1024.9mb 55f 56f
7:24am 1 2 mph 1024.9mb 55f 56f
7:18am 2
mph
1024.8mb 55f -
7:12am 2
mph
1024.7mb 55f 56f
7:06am 3
mph
1024.7mb 55f 56f
7:00am 2
mph
1024.7mb 55f 56f
6:54am 1
mph
1024.7mb 55f 56f
6:48am 1 2 mph 1024.6mb 55f -
6:42am 2 3 mph 1024.6mb 55f 56f
6:36am 2
mph
1024.5mb 55f 56f
6:30am 2 3 mph 1024.5mb 55f 56f
6:24am 3 5 mph 1024.5mb 55f 56f
6:18am 3
mph
1024.5mb 55f -
6:12am 3
mph
1024.6mb 55f 56f
6:06am 3
mph
1024.6mb 55f 56f
6:00am 2 3 mph 1024.6mb 55f 57f
5:54am 2 3 mph 1024.6mb 55f 57f
5:48am 2
mph
1024.5mb 55f -
5:42am 2
mph
1024.4mb 55f 57f
5:36am 2 3 mph 1024.4mb 55f 57f
5:30am 2 3 mph 1024.4mb 55f 57f
5:24am 2
mph
1024.4mb 55f 57f
5:18am 3
mph
- - -
5:12am 3 5 mph 1024.2mb 56f 57f
5:06am 3
mph
1024.2mb 56f 57f
5:00am 5 6 mph 1024.1mb 56f 57f
4:54am 3 5 mph 1024.1mb 56f 57f
4:48am 3
mph
1024.1mb 56f -
4:42am 5
mph
1024.1mb 56f 57f
4:36am 5
mph
1024.1mb 56f 57f
4:30am 3 5 mph 1024.2mb 56f 56f
4:24am 3 5 mph 1024.1mb 56f 56f
4:18am 3 5 mph 1024.1mb 56f -
4:12am 3 5 mph 1024.2mb 56f 56f
4:06am 2 3 mph 1024.2mb 56f 56f
4:00am 3
mph
1024.2mb 56f 56f
3:54am 5
mph
1024.4mb 56f 56f
3:48am 5 6 mph 1024.4mb 56f -
3:42am 5 6 mph 1024.4mb 56f 56f
3:36am 3
mph
1024.3mb 56f 56f
3:30am 3 5 mph 1024.3mb 56f 56f
3:24am 3 5 mph 1024.4mb 56f 56f
3:18am 3 5 mph 1024.4mb 56f 56f
3:12am 2 3 mph 1024.4mb 56f 56f
3:06am  -  mph 1024.3mb 56f 56f
3:00am 1
mph
1024.4mb 56f 56f
2:54am 2
mph
1024.5mb 56f 56f
2:48am  -  mph 1024.5mb 56f -
2:42am  -  1 mph 1024.6mb 56f 56f
2:36am  -  1 mph 1024.6mb 56f 56f
2:30am  -  1 mph 1024.6mb 56f 56f
2:24am  -  mph 1024.6mb 56f 56f
2:18am  -  mph 1024.7mb 56f 56f
2:12am  -  1 mph 1024.7mb 56f 56f
2:06am 1 2 mph 1024.7mb 56f 56f
2:00am 1 2 mph 1024.8mb 56f 56f
1:54am 2 3 mph 1024.8mb 56f 56f
1:48am 2 3 mph - - -
1:42am 2 3 mph 1024.9mb - -
1:36am 1
mph
1025.1mb - -
1:30am 2 3 mph 1025.1mb 56f 57f
1:24am 3
mph
1025.1mb 56f 57f
1:18am 3 5 mph 1025.1mb - -
1:12am 5 6 mph 1025.1mb 56f 57f
1:06am 6 7 mph 1025.1mb 56f 57f
1:00am 5 6 mph 1025.3mb 56f 57f
12:54am 3 5 mph 1025.5mb 56f 57f
12:48am 5
mph
1025.5mb 56f 57f
12:42am 5 6 mph - - -
12:36am 5 6 mph - - -
12:30am 6 7 mph 1025.6mb 56f 57f
12:24am 6 7 mph 1025.6mb 56f 57f
12:18am 6 8 mph 1025.7mb 56f -
12:12am 6 7 mph 1025.7mb 56f 57f
12:06am 5 7 mph 1025.7mb 56f 57f
12:00am 5 6 mph 1025.7mb 56f 57f
Mon 01/16 11:54pm 6
mph
1025.7mb 56f 57f
11:48pm 6 7 mph - - -
11:42pm 5 7 mph 1025.7mb 56f 56f
11:36pm 6 8 mph 1025.8mb 56f 56f
11:30pm 6 8 mph 1025.9mb 56f 56f
11:24pm 6 7 mph 1025.9mb 56f 56f
11:18pm 7 8 mph 1026.1mb - -
11:12pm 8 9 mph 1026.1mb 56f 56f
11:06pm 6 7 mph 1026.2mb 56f 56f
11:00pm 5 6 mph 1026.3mb 56f 56f
10:54pm 6 8 mph 1026.3mb 56f 56f
10:48pm 3 5 mph 1026.2mb - -
10:42pm 6 7 mph 1026.3mb 56f 56f
10:36pm 7 8 mph 1026.4mb 56f 56f
10:30pm 5 6 mph 1026.4mb 56f 56f
10:24pm 6 7 mph 1026.3mb 56f 56f
10:18pm 5 6 mph 1026.3mb 56f 56f
10:12pm 6 7 mph 1026.4mb 56f 56f
10:06pm 7 8 mph 1026.5mb 56f 56f
10:00pm 6 7 mph 1026.4mb 56f 56f
9:54pm 7 9 mph 1026.5mb 56f 56f
9:48pm 7 9 mph 1026.6mb - -
9:42pm 8 10 mph 1026.6mb 56f 56f
9:36pm 9 10 mph 1026.6mb 56f 56f
9:30pm 9 11 mph 1026.7mb 56f 56f
9:24pm 8 9 mph 1026.8mb 56f 56f
9:18pm 8 10 mph 1026.6mb 56f -
9:12pm 9 11 mph 1026.6mb 56f 56f
9:06pm 8 10 mph 1026.5mb 56f 56f
9:00pm 7 9 mph 1026.7mb 56f 56f
8:54pm 11 13 mph 1026.7mb 56f 56f
8:48pm 11 14 mph 1026.5mb 56f 56f
8:42pm 11 14 mph 1026.5mb 56f 56f
8:36pm 13 17 mph 1026.4mb 56f 56f
8:30pm 14 16 mph 1026.3mb 55f 56f
8:24pm 13 14 mph 1026.2mb 55f 56f
8:18pm 14 16 mph 1026.3mb 55f -
8:12pm 11 15 mph 1026.3mb 55f 56f
8:06pm 13 16 mph 1026.2mb 55f 56f
8:00pm 15 17 mph 1026.2mb 55f 55f
7:54pm 15 20 mph 1026.3mb 55f 55f
7:48pm 14 17 mph 1026.3mb 55f 56f
7:42pm 16 20 mph 1026.2mb 55f 56f
7:36pm 16 20 mph 1026.1mb 55f 56f
7:30pm 17 22 mph 1026.1mb 55f 56f
7:24pm 16 17 mph 1026.2mb 55f 56f
7:18pm 14 21 mph 1026.2mb 55f 57f
7:12pm 15 20 mph 1026.1mb 55f 57f
7:06pm 17 20 mph 1026.2mb 55f 57f
7:00pm 16 20 mph 1026.2mb 55f 57f
6:54pm 15 18 mph 1026.3mb 55f 57f
6:48pm 15 18 mph 1026.3mb 55f 57f
6:42pm 14 17 mph 1026.2mb 55f 57f
6:36pm 15 18 mph 1026.1mb 55f 57f
6:30pm 15 17 mph 1026.1mb 55f 57f
6:24pm 15 18 mph 1026.2mb 55f 57f
6:18pm 15 18 mph 1026.3mb 55f 57f
6:12pm 14 16 mph 1026.3mb 55f 57f
6:06pm 14 18 mph 1026.3mb 55f 57f
6:00pm 15 18 mph 1026.3mb 55f 57f
5:54pm 14 16 mph 1026.3mb 55f 57f
5:48pm 15 17 mph 1026.3mb 55f 57f
5:42pm 14 16 mph 1026.3mb 55f 58f
5:36pm 15 17 mph 1026.4mb 55f 58f
5:30pm 15 18 mph 1026.3mb 55f 58f
5:24pm 16 20 mph 1026.3mb 55f 58f
5:18pm 16 20 mph - - -
5:12pm 15 17 mph 1026.3mb 56f 58f
5:06pm 11 15 mph 1026.2mb 56f 58f
5:00pm 11 14 mph 1026.2mb 56f 57f
4:54pm 14 16 mph 1026.2mb 56f 58f
4:48pm 13 16 mph 1026.3mb 56f 58f
4:42pm 14 17 mph 1026.2mb 56f 58f
4:36pm 15 17 mph 1026.1mb 56f 58f
4:30pm 13 15 mph 1026.1mb 56f 58f
4:24pm 15 17 mph 1026mb 56f 58f
4:18pm 14 16 mph 1026mb 56f 58f
4:12pm 13 15 mph 1026mb 56f 58f
4:06pm 14 17 mph 1026mb 56f 58f
4:00pm 13 15 mph 1025.9mb 56f 58f
3:54pm 13 15 mph 1025.9mb 56f 58f
3:48pm 11 15 mph 1025.9mb 56f -
3:42pm 14 16 mph 1026mb 56f 57f
3:36pm 15 17 mph 1026mb 56f 57f
3:30pm 14 17 mph 1026mb 56f 57f
3:24pm 13 15 mph 1026mb 56f 57f
3:18pm 13 16 mph 1026mb 56f 57f
3:12pm 14 16 mph 1025.9mb 56f 57f
3:06pm 13 14 mph 1025.9mb 56f 57f
3:00pm 11 14 mph 1025.9mb 56f 57f
2:54pm 11 14 mph 1025.8mb 56f 57f
2:48pm 11 14 mph 1025.8mb - -
2:42pm 11 14 mph 1025.8mb 56f 57f
2:36pm 13 15 mph 1025.8mb 56f 57f
2:30pm 11 14 mph 1025.8mb 55f 58f
2:24pm 11 14 mph 1025.9mb 55f 58f
2:18pm 10 13 mph 1026mb 55f -
2:12pm 13 15 mph 1026mb 55f 59f
2:06pm 13 17 mph 1026mb 55f 59f
2:00pm 14 16 mph 1026.1mb 55f 59f
1:54pm 14 17 mph 1026.1mb 55f 60f
1:48pm 14 17 mph 1026.2mb 55f -
1:42pm 13 16 mph 1026.3mb 55f 60f
1:36pm 13 16 mph 1026.3mb 55f 60f
1:30pm 13 18 mph 1026.4mb 56f 59f
1:24pm 14 18 mph 1026.5mb 56f 60f
1:18pm 13 16 mph 1026.6mb - -
1:12pm 11 15 mph 1026.6mb 56f 60f
1:06pm 13 16 mph 1026.8mb 56f 59f
1:00pm 10 17 mph 1026.9mb 56f 59f
12:54pm 10 14 mph 1027.1mb 56f 58f
12:48pm 11 14 mph 1027.2mb 56f 58f
12:42pm 10 13 mph 1027.2mb 56f 59f
12:36pm 9 11 mph 1027.2mb 56f 60f
12:30pm 8 9 mph 1027.4mb 56f 60f
12:24pm 8 9 mph 1027.5mb 56f 59f
12:18pm 8 9 mph 1027.6mb - -
12:12pm 7 8 mph 1027.6mb 56f 60f
12:06pm 8 10 mph 1027.7mb 56f 59f
12:00pm 8 10 mph 1027.8mb 56f 59f
11:54am 9 11 mph 1028mb 56f 59f
11:48am 9 13 mph 1028mb - -
11:42am 10 11 mph 1028mb 56f 59f
11:36am 11 14 mph 1028mb 56f 58f
11:30am 13 16 mph 1028mb 56f 58f
11:24am 14 17 mph 1028mb 56f 58f
11:18am 14 20 mph 1028.1mb 56f 58f
11:12am 14 18 mph 1028.2mb 56f 58f
11:06am 13 15 mph 1028.2mb 56f 58f
11:00am 13 17 mph 1028.3mb 56f 57f
10:54am 14 17 mph 1028.3mb 56f 58f
10:48am 13 18 mph 1028.3mb 56f -
10:42am 15 20 mph 1028.3mb 56f 58f
10:36am 13 16 mph 1028.4mb 56f 57f
10:30am 11 16 mph 1028.4mb 56f 58f
10:24am 10 14 mph 1028.4mb 56f 58f
10:18am 11 15 mph 1028.4mb 56f 58f
10:12am 13 15 mph 1028.4mb 56f 58f
10:06am 14 17 mph 1028.3mb 56f 58f
10:00am 14 18 mph 1028.2mb 55f 58f
9:54am 13 16 mph 1028.1mb 55f 58f
9:48am 10 13 mph 1028mb 55f 57f
9:42am 11 14 mph 1028mb 55f 57f
9:36am 9 10 mph 1028mb 55f 57f
9:30am 6 7 mph 1027.9mb 55f 57f
9:24am 7 9 mph 1027.9mb 55f 57f
9:18am 3 5 mph 1027.9mb - -
9:12am 7 8 mph 1027.8mb 55f 57f
9:06am 6 7 mph 1027.5mb 55f 57f
9:00am 7 8 mph 1027.4mb 55f 56f
8:54am 7 8 mph 1027.3mb 55f 56f
8:48am 7 9 mph 1027.2mb 55f 56f
8:42am 8 9 mph 1027mb 55f 56f
8:36am 9 11 mph 1027mb 55f 56f
8:30am 7 9 mph 1026.9mb 55f 56f
8:24am 7 10 mph 1026.8mb 55f 56f
8:18am 9 10 mph 1026.8mb - -
8:12am 8 10 mph 1026.6mb 55f 56f
8:06am 10 11 mph 1026.6mb 55f 56f
8:00am 8 10 mph 1026.5mb 55f 56f
7:54am 9 10 mph 1026.4mb 55f 56f
7:48am 8 9 mph 1026.3mb 55f 56f
7:42am 8 9 mph 1026.4mb 55f 57f
7:36am 7 9 mph 1026.4mb 54f 57f
7:30am 8 9 mph 1026.5mb 54f 57f
7:24am 8 9 mph 1026.5mb 54f 57f
7:18am 7
mph
1026.5mb 54f 57f
7:12am 7 8 mph 1026.4mb 54f 57f
7:06am 7 8 mph 1026.4mb 54f 57f
7:00am 7
mph
1026.3mb 54f 57f
6:54am 8 9 mph 1026.1mb 54f 57f
6:48am 8 10 mph 1026.1mb 54f -
6:42am 7 9 mph 1026mb 54f 58f
6:36am 7 8 mph 1026mb 54f 58f
6:30am 7 8 mph 1025.9mb 54f 58f
6:24am 6 7 mph 1025.7mb 54f 57f
6:18am 6 7 mph 1025.7mb 54f 57f
6:12am 6 7 mph 1025.6mb 54f 57f
6:06am 5 6 mph 1025.4mb 54f 57f
6:00am 5 6 mph 1025.4mb 54f 58f
5:54am 3 5 mph 1025.3mb 54f 57f
5:48am 5
mph
1025.3mb 54f -
5:42am 6
mph
1025.3mb 54f 57f
5:36am 5 6 mph 1025.3mb 54f 57f
5:30am 5 6 mph 1025.3mb 54f 58f
5:24am 3 5 mph 1025.3mb 54f 58f
5:18am 5
mph
1025.4mb 54f -
5:12am 5
mph
1025.4mb 55f 58f
5:06am 3
mph
1025.4mb 55f 58f
5:00am 3 5 mph 1025.4mb 55f 58f
4:54am 2 3 mph 1025.3mb 55f 58f
4:48am 3 5 mph 1025.2mb 55f 58f
4:42am 3 5 mph 1025.1mb 55f 57f
4:36am 5 6 mph 1025.1mb 55f 57f
4:30am 6 7 mph 1025mb 55f 57f
4:24am 7 8 mph 1025mb 55f 57f
4:18am 6 7 mph 1025mb 55f 57f
4:12am 6
mph
1025mb 55f 57f
4:06am 5 7 mph 1024.9mb 55f 57f
4:00am 5 6 mph 1024.8mb 55f 56f
3:54am 2
mph
1024.7mb 55f 56f
3:48am  -  1 mph 1024.7mb - -
3:42am  -  1 mph 1024.7mb 55f 56f
3:36am  -  1 mph 1024.7mb 55f 56f
3:30am 2
mph
1024.8mb 55f 57f
3:24am 2
mph
1024.8mb 55f 57f
3:18am 1
mph
- - -
3:12am 1 2 mph 1024.9mb 55f 56f
3:06am 1 2 mph 1024.9mb 55f 56f
3:00am  -  mph 1025mb 55f 56f
2:54am  -  mph 1025mb 55f 56f
2:48am  -  mph 1025mb - -
2:42am  -  mph 1024.9mb 55f 56f
2:36am  -  1 mph 1024.9mb 55f 56f
2:30am 1
mph
1025mb 55f 56f
2:24am 2
mph
1025.1mb 55f 57f
2:18am 2 3 mph 1025.1mb - -
2:12am 1 2 mph 1025.1mb 55f 56f
2:06am 1 2 mph 1025.1mb 55f 58f
2:00am 1
mph
1025.2mb 55f 57f
1:54am 1
mph
1025.1mb 55f 57f
1:48am  -  mph - - -
1:42am  -  1 mph 1025.2mb - -
1:36am 1 2 mph 1025.2mb - -
1:30am  -  mph 1025.1mb 55f 57f
1:24am  -  mph 1025.2mb 55f 56f
1:18am  -  1 mph 1025.1mb - -
1:12am  -  mph 1025.2mb 55f 58f
1:06am 1 2 mph 1025.2mb 55f 58f
1:00am 1 2 mph 1025.2mb 55f 57f
12:54am 1 2 mph 1025.2mb 55f 57f
12:48am 2
mph
1025.3mb - -
12:42am 1
mph
1025.2mb 55f 58f
12:36am 1 2 mph 1025.2mb 55f 58f
12:30am 1 2 mph 1025.2mb 55f 58f
12:24am 1
mph
1025.2mb 55f 58f
12:18am 1 2 mph 1025.3mb - -
12:12am 2
mph
1025.3mb 55f 58f
12:06am 2 3 mph 1025.4mb 55f 57f
12:00am 2 3 mph 1025.5mb 55f 58f
Sun 01/15 11:54pm 2 3 mph 1025.4mb 55f 58f
11:48pm 2 3 mph - - -
11:42pm 3
mph
1025.5mb 55f 57f
11:36pm 3 5 mph 1025.6mb 55f 57f
11:30pm 3 6 mph 1025.6mb 55f 58f
11:24pm 5
mph
1025.7mb 55f 57f
11:18pm 5 6 mph 1025.7mb 55f 57f
11:12pm 3 5 mph 1025.7mb 55f 58f
11:06pm 3 5 mph 1025.7mb 55f 58f
11:00pm 3 5 mph 1025.8mb 55f 58f
10:54pm 5 6 mph 1025.8mb 55f 58f
10:48pm 3
mph
1025.8mb 55f 58f
10:42pm 5 6 mph 1025.9mb 55f 58f
10:36pm 3 5 mph 1025.9mb 55f 58f
10:30pm 3 5 mph 1026mb 55f 58f
10:24pm 5 6 mph 1025.9mb 55f 58f
10:18pm 3 5 mph 1025.9mb 55f 58f
10:12pm 2 5 mph 1025.9mb 55f 57f
10:06pm 3 5 mph 1025.9mb 55f 57f
10:00pm 3 5 mph 1025.9mb 55f 57f
9:54pm 3 5 mph 1026mb 55f 58f
9:48pm 3
mph
1025.9mb 55f 58f
9:42pm 3 5 mph 1025.9mb 55f 58f
9:36pm 3 5 mph 1025.9mb 55f 58f
9:30pm 3 5 mph 1025.9mb 55f 58f
9:24pm 2 3 mph 1025.9mb 55f 58f
9:18pm 3 5 mph 1025.8mb 55f 58f
9:12pm 5 6 mph 1025.8mb 55f 58f
9:06pm 5 6 mph 1025.8mb 55f 58f
9:00pm 3 5 mph 1025.7mb 55f 58f
8:54pm 3 5 mph 1025.7mb 55f 58f
8:48pm 3 5 mph 1025.6mb 55f 58f
8:42pm 3 5 mph 1025.6mb 55f 58f
8:36pm 3 5 mph 1025.5mb 55f 58f
8:30pm 3 6 mph 1025.5mb 55f 58f
8:24pm 2 3 mph 1025.5mb 55f 58f
8:18pm 2 5 mph 1025.5mb 55f 58f
8:12pm 2 3 mph 1025.5mb 55f 58f
8:06pm 2 5 mph 1025.5mb 55f 58f
8:00pm 2 3 mph 1025.5mb 55f 58f
7:54pm 1 2 mph 1025.4mb 55f 58f
7:48pm 3 5 mph 1025.4mb 55f 59f
7:42pm 2 5 mph 1025.4mb 55f 59f
7:36pm 2 3 mph 1025.4mb 55f 59f
7:30pm 2 5 mph 1025.5mb 55f 59f
7:24pm 3 5 mph 1025.5mb 55f 59f
7:18pm 3 5 mph 1025.6mb - -
7:12pm 3 5 mph 1025.5mb 55f 59f
7:06pm 5 6 mph 1025.5mb 55f 59f
7:00pm 5 6 mph 1025.4mb 55f 59f
6:54pm 5 6 mph 1025.4mb 55f 60f
6:48pm 3 5 mph 1025.3mb 55f 60f
6:42pm 5 6 mph 1025.2mb 55f 60f
6:36pm 3 5 mph 1025.1mb 55f 60f
6:30pm 5 6 mph 1025.1mb 55f 60f
6:24pm 3 5 mph 1025mb 55f 60f
6:18pm 3 6 mph 1025mb 55f -
6:12pm 3 6 mph 1025mb 55f 61f
6:06pm 3 5 mph 1024.9mb 55f 61f
6:00pm 3 6 mph 1024.9mb 55f 61f
5:54pm 2 5 mph 1024.8mb 55f 62f
5:48pm 3 6 mph 1024.8mb 55f 62f
5:42pm 3 5 mph 1024.8mb 55f 62f
5:36pm 3 5 mph 1024.8mb 55f 62f
5:30pm 3 6 mph 1024.8mb 55f 63f
5:24pm 7 10 mph 1024.8mb 55f 64f
5:18pm 6 9 mph 1024.8mb 55f 65f
5:12pm 6 7 mph 1024.7mb 55f 67f
5:06pm 6 8 mph 1024.7mb 55f 69f
5:00pm 5 6 mph 1024.7mb 55f 70f
4:54pm 3 5 mph 1024.6mb 55f 71f
4:48pm 3 5 mph 1024.5mb 55f 72f
4:42pm 3 5 mph 1024.5mb 55f 72f
4:36pm 5 6 mph 1024.5mb 55f 73f
4:30pm 3 5 mph 1024.4mb 55f 74f
4:24pm 3 5 mph 1024.4mb 55f 74f
4:18pm 2 3 mph 1024.3mb - -
4:12pm 3 5 mph 1024.3mb 55f 74f
4:06pm 3 5 mph 1024.3mb 55f 73f
4:00pm 1 3 mph 1024.3mb 55f 73f
3:54pm 2 5 mph 1024.3mb 55f 73f
3:48pm 5 6 mph 1024.4mb 55f -
3:42pm 5
mph
1024.4mb 55f 72f
3:36pm 5 7 mph 1024.4mb 55f 73f
3:30pm 3 5 mph 1024.4mb 55f 73f
3:24pm 3 5 mph 1024.4mb 55f 72f
3:18pm 5 6 mph 1024.4mb 55f -
3:12pm 5 6 mph 1024.4mb 55f 72f
3:06pm 2 5 mph 1024.5mb 55f 73f
3:00pm 3 6 mph 1024.4mb 55f 73f
2:54pm 3 6 mph 1024.5mb 55f 72f
2:48pm 3 6 mph 1024.5mb - -
2:42pm 3 6 mph 1024.5mb 55f 72f
2:36pm 3 6 mph 1024.5mb 55f 71f
2:30pm 3 5 mph 1024.6mb 55f 70f
2:24pm 3 5 mph 1024.6mb 55f 68f
2:18pm 3 5 mph - - -
2:12pm 3
mph
1024.8mb 55f 67f
2:06pm 5 7 mph 1024.9mb 55f 65f
2:00pm 5 6 mph 1024.9mb 55f 65f
1:54pm 6 7 mph 1024.9mb 55f 65f
1:48pm 6 7 mph 1025mb 55f 64f
1:42pm 6 7 mph 1025.1mb 55f 64f
1:36pm 6 7 mph 1025.1mb 55f 64f
1:30pm 5 7 mph 1025.2mb 55f 63f
1:24pm 5 7 mph 1025.4mb 55f 63f
1:18pm 5 7 mph - - -
1:12pm 6 8 mph 1025.5mb 55f 61f
1:06pm 5 7 mph 1025.6mb 55f 61f
1:00pm 6 7 mph 1025.7mb 55f 61f
12:54pm 6 7 mph 1025.8mb 55f 60f
12:48pm 7 8 mph 1025.9mb 55f 60f
12:42pm 6 7 mph 1026mb 55f 59f
12:36pm 6 7 mph 1026.2mb 55f 59f
12:30pm 5 6 mph 1026.4mb 55f 58f
12:24pm 6
mph
1026.5mb 55f 58f
12:18pm 5 6 mph 1026.6mb 55f -
12:12pm 2 3 mph 1026.7mb 55f 58f
12:06pm 3 5 mph 1026.8mb 55f 58f
12:00pm 1 2 mph 1026.9mb 55f 57f
11:54am 2 3 mph 1027mb 55f 56f
11:48am 3
mph
1027.1mb 55f 56f
11:42am 3
mph
1027.3mb 55f 56f
11:36am 3
mph
1027.3mb 55f 56f
11:30am 3
mph
1027.5mb 55f 56f
11:24am 3
mph
1027.6mb 55f 56f
11:18am 3
mph
1027.7mb 55f 55f
11:12am 3
mph
1027.8mb 55f 55f
11:06am 3
mph
1027.9mb 55f 55f
11:00am 3
mph
1028mb 55f 55f
10:54am 3 5 mph 1028.3mb 55f 55f
10:48am 3
mph
1028.3mb 55f 55f
10:42am 3
mph
1028.3mb 55f 55f
10:36am 3
mph
1028.4mb 55f 55f
10:30am 3
mph
1028.3mb 55f 55f
10:24am 3
mph
1028.3mb 55f 54f
10:18am 2 3 mph 1028.3mb 55f 54f
10:12am 2
mph
1028.3mb 55f 54f
10:06am 3
mph
1028.3mb 55f 54f
10:00am 3
mph
1028.3mb 55f 54f
9:54am 3 5 mph 1028.3mb 55f 54f
9:48am 2 3 mph 1028.3mb 55f -
9:42am  -  2 mph 1028.2mb 55f 54f
9:36am 2 3 mph 1028.2mb 55f 54f
9:30am 3 5 mph 1028.1mb 55f 54f
9:24am 3 5 mph 1028.1mb 55f 54f
9:18am 5
mph
1028.1mb 55f 54f
9:12am 3 5 mph 1028.1mb 55f 54f
9:06am 3 5 mph 1028.1mb 55f 54f
9:00am 3 5 mph 1028.1mb 55f 54f
8:54am 2 3 mph 1028mb 55f 53f
8:48am 1 3 mph 1027.9mb 55f 53f
8:42am 1 2 mph 1027.9mb 55f 53f
8:36am 1
mph
1027.8mb 55f 53f
8:30am 1 2 mph 1027.8mb 55f 53f
8:24am 1
mph
1027.7mb 55f 53f
8:18am  -  1 mph 1027.7mb 55f 52f
8:12am 1
mph
1027.6mb 55f 52f
8:06am  -  2 mph 1027.6mb 55f 51f
8:00am 1 2 mph 1027.5mb 55f 51f
7:54am  -  2 mph 1027.5mb 55f 51f
7:48am  -  1 mph 1027.5mb 55f 50f
7:42am 1 2 mph 1027.5mb 55f 50f
7:36am 1 2 mph 1027.4mb 55f 50f
7:30am  -  1 mph 1027.4mb 54f 50f
7:24am 1 3 mph 1027.3mb 54f 50f
7:18am  -  1 mph 1027.2mb 54f 50f
7:12am 1 2 mph 1027.1mb 54f 50f
7:06am 2 3 mph 1027.1mb 54f 50f
7:00am 1 2 mph 1027mb 54f 50f
6:54am 2 3 mph 1027.1mb 54f 49f
6:48am 3 5 mph 1027.1mb 54f 50f
6:42am  -  mph 1027.1mb 54f 50f
6:36am  -  mph 1027mb 54f 50f
6:30am 1 2 mph 1027mb 54f 50f
6:24am  -  1 mph 1027mb 54f 50f
6:18am  -  1 mph 1027mb 54f 50f
6:12am  -  1 mph 1026.8mb 54f 50f
6:06am 2 3 mph 1026.7mb 54f 50f
6:00am 2
mph
1026.8mb 54f 51f
5:54am 2
mph
1026.7mb 54f 50f
5:48am 1
mph
1026.6mb 54f 50f
5:42am 1 2 mph 1026.5mb 54f 50f
5:36am 1 2 mph 1026.5mb 54f 50f
5:30am 2
mph
1026.6mb 54f 50f
5:24am 5 6 mph 1026.6mb 54f 51f
5:18am 5
mph
1026.6mb 54f 50f
5:12am 3
mph
1026.6mb 54f 50f
5:06am 5
mph
1026.6mb 54f 50f
5:00am 5 6 mph 1026.6mb 54f 50f
4:54am 5
mph
1026.6mb 54f 51f
4:48am 5
mph
1026.6mb 54f 51f
4:42am 5 6 mph 1026.6mb 54f 50f
4:36am 5
mph
1026.5mb 54f 51f
4:30am 3 5 mph 1026.5mb 54f 50f
4:24am 3 5 mph 1026.5mb 54f 51f
4:18am 5
mph
1026.5mb 54f 51f
4:12am 2 3 mph 1026.6mb 54f 51f
4:06am 2
mph
1026.6mb 54f 51f
4:00am 1 2 mph 1026.6mb 54f 51f
3:54am 1 2 mph 1026.6mb 54f 51f
3:48am 1 2 mph 1026.7mb 54f 51f
3:42am 1 2 mph 1026.8mb 54f 51f
3:36am 2
mph
1026.8mb 54f 51f
3:30am 2
mph
1026.8mb 54f 51f
3:24am 1
mph
1026.8mb 55f 51f
3:18am  -  1 mph 1026.8mb 55f 51f
3:12am 1 2 mph 1026.9mb 55f 51f
3:06am  -  1 mph 1026.9mb 55f 51f
3:00am  -  1 mph 1026.9mb 55f 51f
2:54am  -  1 mph 1027mb 55f 51f
2:48am 1 2 mph 1027mb 55f 51f
2:42am 1 2 mph 1027mb 55f 52f
2:36am 1 2 mph 1027mb 55f 52f
2:30am 2 3 mph 1027.1mb 55f 52f
2:24am 3
mph
1027.1mb 55f 52f
2:18am 2 3 mph 1027.1mb 55f 52f
2:12am 2 3 mph 1027.1mb 55f 52f
2:06am 2
mph
1027.2mb 55f 52f
2:00am 2 3 mph 1027.3mb 55f 52f
1:54am 3 5 mph 1027.3mb 55f 52f
1:48am 2 5 mph 1027.4mb 55f -
1:42am  -  mph 1027.4mb 55f -
1:36am  -  mph 1027.4mb 55f -
1:30am  -  mph 1027.4mb 55f 52f
1:24am  -  mph 1027.4mb 55f 52f
1:18am  -  1 mph 1027.4mb 55f -
1:12am  -  1 mph 1027.5mb 55f 53f
1:06am 2 3 mph 1027.6mb 55f 53f
1:00am 2
mph
1027.7mb 55f 53f
12:54am 1 2 mph 1027.8mb 55f 53f
12:48am 1 2 mph 1027.9mb - -
12:42am 1 2 mph 1027.9mb - -
12:36am 3 6 mph 1028.1mb - -
12:30am 5 6 mph 1028.2mb 55f 53f
12:24am 5 6 mph 1028.4mb 55f 53f
12:18am 5 6 mph 1028.4mb 55f 53f
12:12am 7 8 mph 1028.4mb 55f 53f
12:06am 6 7 mph 1028.5mb 55f 54f
12:00am 6 7 mph 1028.6mb 55f 54f
Sat 01/14 11:54pm 3 5 mph 1028.7mb 55f 54f
11:48pm 7 8 mph 1028.8mb 55f 54f
11:42pm 6 7 mph 1028.8mb 55f 54f
11:36pm 6 8 mph 1028.9mb 55f 54f
11:30pm 8 9 mph 1029.1mb 55f 53f
11:24pm 7 9 mph 1029.1mb 55f 53f
11:18pm 6 7 mph 1029.2mb 55f 54f
11:12pm 7 8 mph 1029.3mb 55f 53f
11:06pm 5 7 mph 1029.4mb 55f 53f
11:00pm 6 8 mph 1029.4mb 55f 53f
10:54pm 5 6 mph 1029.4mb 55f 53f
10:48pm 6 8 mph 1029.5mb 55f 53f
10:42pm 6 7 mph 1029.5mb 55f 53f
10:36pm 5 6 mph 1029.5mb 55f 54f
10:30pm 5
mph
1029.5mb 55f 54f
10:24pm 6
mph
1029.5mb 55f 53f
10:18pm 5 6 mph 1029.5mb 55f -
10:12pm 6
mph
1029.6mb 55f 53f
10:06pm 6 7 mph 1029.5mb 55f 54f
10:00pm 7
mph
1029.6mb 55f 54f
9:54pm 6 7 mph 1029.6mb 55f 54f
9:48pm 6
mph
1029.7mb 55f 54f
9:42pm 6 7 mph 1029.7mb 55f 54f
9:36pm 6 8 mph 1029.7mb 55f 54f
9:30pm 5 6 mph 1029.7mb 55f 54f
9:24pm 6
mph
1029.7mb 55f 54f
9:18pm 6 7 mph 1029.7mb 55f 54f
9:12pm 3 5 mph 1029.7mb 55f 54f
9:06pm 5 6 mph 1029.7mb 55f 54f
9:00pm 6 7 mph 1029.6mb 55f 54f
8:54pm 6
mph
1029.6mb 55f 54f
8:48pm 6 7 mph 1029.6mb 55f 54f
8:42pm 6 7 mph 1029.6mb 55f 54f
8:36pm 6 7 mph 1029.6mb 55f 54f
8:30pm 6 7 mph 1029.6mb 55f 54f
8:24pm 7
mph
1029.5mb 55f 54f
8:18pm 7 8 mph 1029.5mb 55f 54f
8:12pm 7 8 mph 1029.5mb 55f 54f
8:06pm 6 7 mph 1029.5mb 55f 54f
8:00pm 5 7 mph 1029.5mb 55f 54f
7:54pm 5 6 mph 1029.5mb 55f 54f
7:48pm 6 7 mph 1029.5mb - -
7:42pm 6
mph
1029.4mb 55f 54f
7:36pm 6 7 mph 1029.4mb 55f 54f
7:30pm 7
mph
1029.3mb 55f 54f
7:24pm 7
mph
1029.3mb 55f 54f
7:18pm 7 8 mph 1029.3mb 55f -
7:12pm 7 8 mph 1029.2mb 55f 54f
7:06pm 7 8 mph 1029.2mb 54f 54f
7:00pm 6 7 mph 1029.2mb 54f 54f
6:54pm 6 7 mph 1029.2mb 54f 54f
6:48pm 7 8 mph 1029.2mb 54f 54f
6:42pm 5 7 mph 1029.2mb 54f 54f
6:36pm 7 8 mph 1029.3mb 54f 54f
6:30pm 7 8 mph 1029.3mb 54f 54f
6:24pm 6 7 mph 1029.2mb 54f 54f
6:18pm 7 8 mph 1029.2mb 54f -
6:12pm 6 8 mph 1029.2mb 54f 54f
6:06pm 3 5 mph 1029.2mb 54f 54f
6:00pm 7 8 mph 1029.1mb 54f 54f
5:54pm 7 8 mph 1029.1mb 54f 54f
5:48pm 6 7 mph 1029.1mb 54f 54f
5:42pm 7 8 mph 1029mb 54f 54f
5:36pm 5 6 mph 1029mb 54f 54f
5:30pm 7 8 mph 1029.1mb 54f 54f
5:24pm 6 7 mph 1029.1mb 54f 54f
5:18pm 6 7 mph 1029.1mb 54f 54f
5:12pm 6 8 mph 1029.1mb 54f 54f
5:06pm 3 5 mph 1029.1mb 54f 54f
5:00pm 6 7 mph 1029.1mb 54f 54f
4:54pm 7 8 mph 1029.1mb 54f 54f
4:48pm 8 9 mph 1029.1mb 54f 54f
4:42pm 8 9 mph 1029.1mb 54f 53f
4:36pm 7 8 mph 1029.2mb 54f 54f
4:30pm 8 9 mph 1029.3mb 54f 54f
4:24pm 9 10 mph 1029.3mb 54f 54f
4:18pm 9
mph
1029.3mb 54f 54f
4:12pm 8 10 mph 1029.4mb 54f 54f
4:06pm 9 10 mph 1029.4mb 54f 54f
4:00pm 8 9 mph 1029.5mb 54f 54f
3:54pm 8 9 mph 1029.5mb 54f 54f
3:48pm 10 11 mph 1029.5mb 54f -
3:42pm 9 10 mph 1029.5mb 54f 54f
3:36pm 9 10 mph 1029.5mb 54f 54f
3:30pm 9 11 mph 1029.5mb 54f 54f
3:24pm 9 11 mph 1029.5mb 54f 54f
3:18pm 10 13 mph 1029.6mb - -
3:12pm 11 13 mph 1029.5mb 54f 54f
3:06pm 11 14 mph 1029.5mb 54f 54f
3:00pm 11 14 mph 1029.6mb 54f 54f
2:54pm 13 14 mph 1029.6mb 54f 55f
2:48pm 11 13 mph 1029.6mb 54f 55f
2:42pm 10 11 mph 1029.6mb 54f 55f
2:36pm 10 11 mph 1029.6mb 54f 55f
2:30pm 9 11 mph 1029.7mb 54f 55f
2:24pm 7 8 mph 1029.7mb 54f 55f
2:18pm 7 8 mph 1029.7mb 54f -
2:12pm 7 8 mph 1029.7mb 54f 56f
2:06pm 6 7 mph 1029.7mb 54f 56f
2:00pm 8 9 mph 1029.7mb 54f 55f
1:54pm 8 9 mph 1029.9mb 54f 55f
1:48pm 9 11 mph 1030mb 54f 56f
1:42pm 9 11 mph 1029.9mb 54f 56f
1:36pm 7 9 mph 1029.9mb 54f 56f
1:30pm 7 8 mph 1030mb 54f 56f
1:24pm 6 7 mph 1030mb 54f 56f
1:18pm 7 8 mph 1030.1mb 54f 56f
1:12pm 7 8 mph 1030.2mb 54f 56f
1:06pm 7 8 mph 1030.3mb 54f 56f
1:00pm 10
mph
1030.4mb 54f 56f
12:54pm 7 9 mph 1030.5mb 54f 56f
12:48pm 7 9 mph 1030.7mb 54f 56f
12:42pm 9 10 mph 1030.8mb 54f 56f
12:36pm 9 10 mph 1030.9mb 54f 56f
12:30pm 8 9 mph 1031mb 54f 56f
12:24pm 6 8 mph 1031.1mb 54f 57f
12:18pm 7
mph
1031.2mb 54f 57f
12:12pm 8 9 mph 1031.3mb 54f 57f
12:06pm 7 9 mph 1031.4mb 54f 58f
12:00pm 8
mph
1031.5mb 54f 58f
11:54am 7 8 mph 1031.6mb 54f 58f
11:48am 6 7 mph 1031.6mb 54f -
11:42am 7 8 mph 1031.7mb 54f 58f
11:36am 6 7 mph 1031.9mb 54f 58f
11:30am 7 8 mph 1032mb 54f 58f
11:24am 7 8 mph 1032.2mb 54f 58f
11:18am 7
mph
1032.3mb 55f 59f
11:12am 7 9 mph 1032.3mb 54f 58f
11:06am 8 9 mph 1032.4mb 54f 59f
11:00am 7
mph
1032.4mb 54f 59f
10:54am 6 8 mph 1032.5mb 54f 59f
10:48am 6 8 mph 1032.5mb 54f 60f
10:42am 6 7 mph 1032.5mb 54f 59f
10:36am 5 6 mph 1032.6mb 54f 59f
10:30am  -  2 mph 1032.5mb 54f 59f
10:24am 3 6 mph 1032.7mb 54f 58f
10:18am 7
mph
1032.8mb 54f 58f
10:12am 5 9 mph 1032.8mb 54f 57f
10:06am 8 10 mph 1032.9mb 54f 57f
10:00am 10 13 mph 1032.8mb 54f 57f
9:54am 6 11 mph 1032.6mb 54f 57f
9:48am 9 14 mph 1032.6mb 54f 57f
9:42am 10 15 mph 1032.7mb 54f 58f
9:36am 2 3 mph 1032.4mb 54f 60f
9:30am 2 3 mph 1032.3mb 54f 60f
9:24am 1 3 mph 1032.3mb 54f 60f
9:18am 2
mph
1032.2mb 54f -
9:12am 1 2 mph 1032.1mb 54f 59f
9:06am 3 5 mph 1032.1mb 54f 58f
9:00am 5 7 mph 1032mb 54f 58f
8:54am 5 6 mph 1032mb 54f 57f
8:48am 5
mph
1032mb 54f 56f
8:42am 3
mph
1031.9mb 54f 55f
8:36am 3
mph
1031.8mb 54f 55f
8:30am 2 3 mph 1031.8mb 54f 55f
8:24am 3
mph
1031.7mb 54f 54f
8:18am 3 5 mph 1031.7mb 54f -
8:12am 3 5 mph 1031.6mb 54f 53f
8:06am 3 5 mph 1031.6mb 54f 53f
8:00am 2 3 mph 1031.6mb 54f 53f
7:54am 3 5 mph 1031.6mb 54f 53f
7:48am 3 5 mph 1031.6mb 55f 53f
7:42am 5
mph
1031.5mb 55f 53f
7:36am 5
mph
1031.5mb 55f 53f
7:30am 5
mph
1031.4mb 54f 53f
7:24am 3 5 mph 1031.4mb 54f 53f
7:18am 3 5 mph 1031.4mb 54f 53f
7:12am 3 5 mph 1031.4mb 54f 53f
7:06am 3 5 mph 1031.3mb 54f 53f
7:00am 3 5 mph 1031.3mb 54f 54f
6:54am 3 5 mph 1031.3mb 54f 53f
6:48am 3 5 mph 1031.2mb - -
6:42am 3 5 mph 1031.2mb 54f 53f
6:36am 3
mph
1031.1mb 54f 53f
6:30am 3
mph
1031.1mb 54f 53f
6:24am 3
mph
1031.1mb 54f 53f
6:18am 3 5 mph 1031mb 54f 53f
6:12am 3
mph
1030.9mb 54f 53f
6:06am 3 5 mph 1030.9mb 53f 53f
6:00am 5
mph
1030.9mb 53f 53f
5:54am 3 5 mph 1030.9mb 53f 53f
5:48am 5
mph
1030.8mb 53f 53f
5:42am 3 5 mph 1030.8mb 53f 53f
5:36am 3
mph
1030.8mb 53f 53f
5:30am 3
mph
1030.8mb 53f 53f
5:24am 3 5 mph 1030.7mb 53f 53f
5:18am 3 5 mph 1030.7mb 53f -
5:12am 3
mph
1030.7mb 53f 53f
5:06am 3
mph
1030.7mb 53f 53f
5:00am 3
mph
1030.6mb 53f 53f
4:54am 3
mph
1030.7mb 53f 53f
4:48am 3
mph
1030.7mb 53f 53f
4:42am 2
mph
1030.7mb 53f 52f
4:36am 1 2 mph 1030.7mb 53f 52f
4:30am 2 3 mph 1030.8mb 53f 53f
4:24am 2
mph
1030.8mb 53f 53f
4:18am 2
mph
1030.8mb 53f -
4:12am 2
mph
1030.8mb 53f 53f
4:06am 3
mph
1030.8mb 53f 54f
4:00am 2 3 mph 1030.9mb 53f 54f
3:54am 3
mph
1030.9mb 53f 54f
3:48am 3
mph
1031mb 53f 54f
3:42am 3
mph
1031mb 53f 54f
3:36am 3
mph
1031mb 53f 54f
3:30am 3
mph
1031mb 53f 54f
3:24am 3
mph
1031mb 53f 54f
3:18am 2
mph
1031mb 54f -
3:12am 3
mph
1031mb 53f 55f
3:06am 2 3 mph 1031.1mb 54f 55f
3:00am 2
mph
1031.1mb 54f 55f
2:54am 2
mph
1031.1mb 54f 55f
2:48am 2
mph
1031.2mb - -
2:42am 2
mph
1031.2mb 54f 54f
2:36am 2
mph
1031.2mb 54f 54f
2:30am 3
mph
1031.2mb 54f 55f
2:24am 2
mph
1031.2mb 54f 54f
2:18am 2
mph
1031.2mb 54f 54f
2:12am 2
mph
1031.2mb 54f 55f
2:06am 1
mph
1031.2mb 54f 55f
2:00am 2
mph
1031.2mb 54f 55f
1:54am 2
mph
1031.2mb 54f 56f
1:48am 1 2 mph 1031.2mb 54f -
1:42am 1
mph
1031.2mb 54f -
1:36am 2
mph
1031.1mb 54f -
1:30am 1
mph
1031.1mb 54f 56f
1:24am 2
mph
1031.1mb 54f 55f
1:18am 2
mph
1031.2mb 54f 55f
1:12am 2
mph
1031.1mb 54f 56f
1:06am 1
mph
1031.2mb 54f 56f
1:00am 1 2 mph 1031.2mb 54f 55f
12:54am  -  mph 1031.3mb 54f 55f
12:48am  -  mph 1031.4mb 54f -
12:42am  -  1 mph 1031.4mb 54f 56f
12:36am  -  mph 1031.4mb 54f 56f
12:30am  -  mph 1031.4mb 54f 56f
12:24am  -  mph 1031.5mb 54f 56f
12:18am  -  mph 1031.6mb 54f -
12:12am  -  mph 1031.7mb 54f 56f
12:06am  -  mph 1031.8mb 54f 56f
12:00am  -  mph 1031.8mb 54f 55f
Fri 01/13 11:54pm  -  mph 1031.8mb 54f 56f
11:48pm  -  mph 1031.9mb 54f 55f
11:42pm  -  mph 1031.9mb 54f 56f
11:36pm  -  mph 1031.9mb 54f 56f
11:30pm  -  mph 1032mb 54f 56f
11:24pm  -  mph 1032mb 54f 57f
11:18pm  -  mph 1032.1mb 54f 55f
11:12pm  -  mph 1032.1mb 55f 57f
11:06pm  -  mph 1032.1mb 55f 57f
11:00pm  -  1 mph 1032.1mb 55f 57f